createdAt,value
2023-11-25T00:01:48.341Z,100877.84
2023-11-25T00:04:17.786Z,100890.50
2023-11-25T00:06:47.457Z,100885.94
2023-11-25T00:09:18.098Z,100883.25
2023-11-25T00:11:47.738Z,100878.88
2023-11-25T00:14:17.264Z,100878.88
2023-11-25T00:16:47.310Z,100883.84
2023-11-25T00:19:17.083Z,100878.91
2023-11-25T00:21:46.962Z,100881.38
2023-11-25T00:24:16.296Z,100883.88
2023-11-25T00:26:45.970Z,100886.34
2023-11-25T00:29:17.933Z,100893.44
2023-11-25T00:31:51.411Z,100898.84
2023-11-25T00:34:21.669Z,100902.13
2023-11-25T00:36:51.656Z,100902.13
2023-11-25T00:39:22.430Z,100907.97
2023-11-25T00:41:52.274Z,100913.78
2023-11-25T00:44:21.929Z,100918.78
2023-11-25T00:46:51.570Z,100919.19
2023-11-25T00:49:21.786Z,100932.50
2023-11-25T00:51:51.231Z,100925.84
2023-11-25T00:54:20.909Z,100929.78
2023-11-25T00:56:50.439Z,100931.84
2023-11-25T00:59:19.861Z,100935.59
2023-11-25T01:01:49.790Z,100926.69
2023-11-25T01:04:19.219Z,100934.97
2023-11-25T01:06:49.375Z,100931.44
2023-11-25T01:09:20.592Z,100936.63
2023-11-25T01:11:50.437Z,100924.81
2023-11-25T01:14:20.297Z,100926.47
2023-11-25T01:16:52.004Z,100924.41
2023-11-25T01:19:22.079Z,100932.06
2023-11-25T01:21:51.504Z,100944.53
2023-11-25T01:24:21.172Z,100928.31
2023-11-25T01:26:50.884Z,100946.22
2023-11-25T01:29:20.615Z,100943.97
2023-11-25T01:31:50.286Z,100947.91
2023-11-25T01:34:20.174Z,100948.34
2023-11-25T01:36:50.136Z,100953.31
2023-11-25T01:39:19.805Z,100948.31
2023-11-25T01:41:49.151Z,100950.59
2023-11-25T01:44:18.849Z,100961.81
2023-11-25T01:46:49.356Z,100962.47
2023-11-25T01:49:19.375Z,100958.72
2023-11-25T01:51:49.413Z,100954.75
2023-11-25T01:54:19.201Z,100934.00
2023-11-25T01:56:52.945Z,100945.41
2023-11-25T01:59:24.973Z,100931.91
2023-11-25T02:01:57.032Z,100930.47
2023-11-25T02:04:27.190Z,100933.78
2023-11-25T02:06:56.936Z,100932.72
2023-11-25T02:09:26.812Z,100933.38
2023-11-25T02:12:00.572Z,100935.03
2023-11-25T02:14:30.644Z,100932.94
2023-11-25T02:17:02.204Z,100931.25
2023-11-25T02:19:32.307Z,100932.53
2023-11-25T02:22:01.813Z,100930.44
2023-11-25T02:24:32.604Z,100920.47
2023-11-25T02:27:02.914Z,100926.50
2023-11-25T02:29:37.473Z,100915.47
2023-11-25T02:32:09.568Z,100918.78
2023-11-25T02:34:39.493Z,100911.31
2023-11-25T02:37:09.500Z,100894.03
2023-11-25T02:39:39.818Z,100893.00
2023-11-25T02:42:09.302Z,100888.03
2023-11-25T02:44:39.028Z,100895.72
2023-11-25T02:47:08.622Z,100878.88
2023-11-25T02:49:38.231Z,100876.41
2023-11-25T02:52:07.700Z,100876.41
2023-11-25T02:54:37.418Z,100881.00
2023-11-25T02:57:09.971Z,100885.56
2023-11-25T02:59:40.082Z,100881.00
2023-11-25T03:02:11.861Z,100883.47
2023-11-25T03:04:47.567Z,100885.16
2023-11-25T03:07:17.730Z,100885.75
2023-11-25T03:09:47.488Z,100898.44
2023-11-25T03:12:16.890Z,100900.94
2023-11-25T03:14:46.787Z,100900.72
2023-11-25T03:17:16.565Z,100895.94
2023-11-25T03:19:47.387Z,100886.78
2023-11-25T03:22:17.757Z,100897.16
2023-11-25T03:24:47.261Z,100892.19
2023-11-25T03:27:17.841Z,100898.19
2023-11-25T03:29:47.382Z,100892.38
2023-11-25T03:32:17.526Z,100885.53
2023-11-25T03:34:47.357Z,100892.59
2023-11-25T03:37:17.660Z,100890.50
2023-11-25T03:39:47.264Z,100886.78
2023-11-25T03:42:17.328Z,100884.69
2023-11-25T03:44:46.845Z,100886.38
2023-11-25T03:47:16.504Z,100878.03
2023-11-25T03:49:47.326Z,100884.88
2023-11-25T03:52:17.610Z,100887.59
2023-11-25T03:54:47.125Z,100882.19
2023-11-25T03:57:16.776Z,100880.28
2023-11-25T03:59:46.219Z,100887.16
2023-11-25T04:02:16.093Z,100878.03
2023-11-25T04:04:46.675Z,100881.75
2023-11-25T04:07:17.145Z,100885.91
2023-11-25T04:09:46.591Z,100875.91
2023-11-25T04:12:16.392Z,100876.34
2023-11-25T04:14:46.185Z,100869.69
2023-11-25T04:17:15.573Z,100876.72
2023-11-25T04:19:45.377Z,100870.06
2023-11-25T04:22:16.098Z,100832.88
2023-11-25T04:24:45.870Z,100848.41
2023-11-25T04:27:15.289Z,100842.97
2023-11-25T04:29:45.266Z,100840.66
2023-11-25T04:32:15.156Z,100842.53
2023-11-25T04:34:44.851Z,100831.84
2023-11-25T04:37:14.458Z,100827.03
2023-11-25T04:39:44.799Z,100829.69
2023-11-25T04:42:15.402Z,100816.97
2023-11-25T04:44:44.836Z,100812.75
2023-11-25T04:47:14.537Z,100809.41
2023-11-25T04:49:44.671Z,100803.34
2023-11-25T04:52:15.097Z,100802.66
2023-11-25T04:54:46.431Z,100791.38
2023-11-25T04:57:16.748Z,100794.50
2023-11-25T04:59:46.199Z,100787.28
2023-11-25T05:02:16.170Z,100782.78
2023-11-25T05:04:45.724Z,100779.53
2023-11-25T05:07:15.367Z,100776.19
2023-11-25T05:09:45.820Z,100771.44
2023-11-25T05:12:16.453Z,100769.78
2023-11-25T05:14:45.854Z,100765.19
2023-11-25T05:17:15.448Z,100776.63
2023-11-25T05:19:45.256Z,100769.56
2023-11-25T05:22:15.019Z,100774.53
2023-11-25T05:24:44.755Z,100767.25
2023-11-25T05:27:14.667Z,100757.25
2023-11-25T05:29:44.784Z,100756.81
2023-11-25T05:32:15.377Z,100758.47
2023-11-25T05:34:44.914Z,100760.31
2023-11-25T05:37:15.592Z,100746.09
2023-11-25T05:39:47.938Z,100740.69
2023-11-25T05:42:25.364Z,100744.63
2023-11-25T05:44:56.178Z,100743.81
2023-11-25T05:47:26.305Z,100729.56
2023-11-25T05:49:55.782Z,100728.69
2023-11-25T05:52:25.509Z,100726.13
2023-11-25T05:54:54.946Z,100717.34
2023-11-25T05:57:24.814Z,100714.41
2023-11-25T05:59:54.752Z,100717.25
2023-11-25T06:02:24.328Z,100704.91
2023-11-25T06:04:53.893Z,100696.34
2023-11-25T06:07:23.966Z,100696.69
2023-11-25T06:09:53.383Z,100690.81
2023-11-25T06:12:23.047Z,100691.22
2023-11-25T06:14:56.983Z,100687.44
2023-11-25T06:17:26.899Z,100678.25
2023-11-25T06:19:56.955Z,100675.13
2023-11-25T06:22:26.331Z,100678.41
2023-11-25T06:24:56.329Z,100669.81
2023-11-25T06:27:25.805Z,100678.56
2023-11-25T06:29:55.543Z,100678.13
2023-11-25T06:32:26.631Z,100674.38
2023-11-25T06:34:58.948Z,100666.81
2023-11-25T06:37:29.069Z,100665.53
2023-11-25T06:39:59.792Z,100667.22
2023-11-25T06:42:29.627Z,100666.97
2023-11-25T06:45:00.232Z,100675.44
2023-11-25T06:47:29.961Z,100673.34
2023-11-25T06:49:59.789Z,100675.03
2023-11-25T06:52:29.505Z,100672.66
2023-11-25T06:54:59.448Z,100669.13
2023-11-25T06:57:29.766Z,100668.88
2023-11-25T06:59:59.428Z,100664.06
2023-11-25T07:02:32.224Z,100665.50
2023-11-25T07:05:01.877Z,100662.53
2023-11-25T07:07:31.918Z,100658.53
2023-11-25T07:10:01.830Z,100645.81
2023-11-25T07:12:32.881Z,100634.75
2023-11-25T07:15:02.591Z,100636.16
2023-11-25T07:17:32.475Z,100629.66
2023-11-25T07:20:02.246Z,100625.91
2023-11-25T07:22:31.826Z,100612.94
2023-11-25T07:25:04.506Z,100615.41
2023-11-25T07:27:35.362Z,100606.00
2023-11-25T07:30:07.528Z,100612.03
2023-11-25T07:32:37.700Z,100606.59
2023-11-25T07:35:10.987Z,100613.19
2023-11-25T07:37:41.401Z,100620.25
2023-11-25T07:40:14.834Z,100607.28
2023-11-25T07:42:50.645Z,100608.91
2023-11-25T07:45:20.502Z,100600.72
2023-11-25T07:47:50.110Z,100611.47
2023-11-25T07:50:20.024Z,100611.56
2023-11-25T07:52:49.629Z,100622.88
2023-11-25T07:55:19.562Z,100622.88
2023-11-25T07:57:53.056Z,100613.66
2023-11-25T08:00:27.813Z,100617.66
2023-11-25T08:02:58.093Z,100627.47
2023-11-25T08:05:27.783Z,100619.94
2023-11-25T08:07:57.723Z,100627.81
2023-11-25T08:10:33.415Z,100631.75
2023-11-25T08:13:04.088Z,100639.03
2023-11-25T08:15:33.957Z,100643.16
2023-11-25T08:18:04.369Z,100644.38
2023-11-25T08:20:35.723Z,100637.06
2023-11-25T08:23:06.463Z,100641.84
2023-11-25T08:25:36.092Z,100649.38
2023-11-25T08:28:05.951Z,100651.84
2023-11-25T08:30:35.378Z,100648.09
2023-11-25T08:33:06.562Z,100656.44
2023-11-25T08:35:36.263Z,100657.66
2023-11-25T08:38:05.720Z,100655.41
2023-11-25T08:40:36.932Z,100648.09
2023-11-25T08:43:10.761Z,100657.03
2023-11-25T08:45:40.704Z,100667.88
2023-11-25T08:48:10.264Z,100670.13
2023-11-25T08:50:40.031Z,100666.34
2023-11-25T08:53:10.292Z,100661.78
2023-11-25T08:55:40.973Z,100648.44
2023-11-25T08:58:10.616Z,100657.78
2023-11-25T09:00:40.303Z,100651.31
2023-11-25T09:03:10.430Z,100652.94
2023-11-25T09:05:42.943Z,100649.19
2023-11-25T09:08:12.739Z,100650.63
2023-11-25T09:10:42.529Z,100647.06
2023-11-25T09:13:13.082Z,100651.91
2023-11-25T09:15:42.841Z,100658.97
2023-11-25T09:18:12.513Z,100661.69
2023-11-25T09:20:42.757Z,100671.91
2023-11-25T09:23:14.324Z,100674.63
2023-11-25T09:25:44.778Z,100683.81
2023-11-25T09:28:16.463Z,100676.75
2023-11-25T09:30:47.263Z,100688.03
2023-11-25T09:33:17.524Z,100703.28
2023-11-25T09:35:47.748Z,100699.13
2023-11-25T09:38:17.515Z,100697.69
2023-11-25T09:40:47.677Z,100696.06
2023-11-25T09:43:19.753Z,100707.13
2023-11-25T09:45:51.503Z,100714.41
2023-11-25T09:48:21.379Z,100716.53
2023-11-25T09:50:54.758Z,100705.69
2023-11-25T09:53:31.398Z,100695.88
2023-11-25T09:56:06.372Z,100701.97
2023-11-25T09:58:37.757Z,100716.94
2023-11-25T10:01:14.234Z,100715.88
2023-11-25T10:03:45.178Z,100709.03
2023-11-25T10:06:16.166Z,100710.34
2023-11-25T10:08:46.912Z,100726.59
2023-11-25T10:11:19.208Z,100735.78
2023-11-25T10:13:49.115Z,100727.63
2023-11-25T10:16:29.127Z,100730.81
2023-11-25T10:19:24.883Z,100740.38
2023-11-25T10:21:54.996Z,100743.28
2023-11-25T10:24:24.686Z,100747.88
2023-11-25T10:26:56.709Z,100763.13
2023-11-25T10:29:27.443Z,100755.56
2023-11-25T10:32:00.238Z,100770.19
2023-11-25T10:34:29.981Z,100772.69
2023-11-25T10:36:59.954Z,100775.59
2023-11-25T10:39:33.594Z,100783.28
2023-11-25T10:42:05.550Z,100782.44
2023-11-25T10:44:37.790Z,100786.59
2023-11-25T10:47:07.912Z,100784.91
2023-11-25T10:49:37.972Z,100793.66
2023-11-25T10:52:09.015Z,100799.06
2023-11-25T10:54:39.264Z,100804.50
2023-11-25T10:57:11.405Z,100816.16
2023-11-25T10:59:44.032Z,100823.25
2023-11-25T11:02:28.323Z,100824.94
2023-11-25T11:05:04.091Z,100821.16
2023-11-25T11:07:35.059Z,100826.59
2023-11-25T11:10:07.672Z,100821.16
2023-11-25T11:12:37.384Z,100826.59
2023-11-25T11:15:12.184Z,100821.16
2023-11-25T11:17:53.478Z,100837.84
2023-11-25T11:20:23.989Z,100829.13
2023-11-25T11:22:54.041Z,100842.91
2023-11-25T11:25:27.670Z,100851.47
2023-11-25T11:28:08.221Z,100846.66
2023-11-25T11:30:48.931Z,100861.25
2023-11-25T11:33:19.238Z,100871.72
2023-11-25T11:35:51.356Z,100876.94
2023-11-25T11:38:44.045Z,100879.03
2023-11-25T11:41:15.674Z,100880.09
2023-11-25T11:44:02.317Z,100880.91
2023-11-25T11:46:33.794Z,100886.78
2023-11-25T11:49:03.689Z,100887.59
2023-11-25T11:51:33.055Z,100895.94
2023-11-25T11:54:21.016Z,100907.78
2023-11-25T11:57:15.724Z,100916.72
2023-11-25T12:00:18.070Z,100927.56
2023-11-25T12:02:49.920Z,100950.69
2023-11-25T12:05:20.948Z,100958.00
2023-11-25T12:07:50.530Z,100973.81
2023-11-25T12:10:21.694Z,100988.63
2023-11-25T12:12:51.506Z,100999.28
2023-11-25T12:15:21.218Z,101001.16
2023-11-25T12:17:51.194Z,100988.44
2023-11-25T12:20:20.818Z,101011.56
2023-11-25T12:22:50.853Z,101000.09
2023-11-25T12:25:21.389Z,101011.75
2023-11-25T12:28:03.569Z,101021.56
2023-11-25T12:30:33.683Z,101022.16
2023-11-25T12:33:03.580Z,101025.94
2023-11-25T12:35:33.370Z,101020.50
2023-11-25T12:38:11.813Z,101020.50
2023-11-25T12:40:48.404Z,101015.09
2023-11-25T12:43:19.421Z,101016.75
2023-11-25T12:45:50.013Z,101023.84
2023-11-25T12:48:31.602Z,101038.41
2023-11-25T12:51:09.417Z,101039.47
2023-11-25T12:53:53.936Z,101046.16
2023-11-25T12:56:24.169Z,101048.06
2023-11-25T12:58:53.658Z,101053.09
2023-11-25T13:01:29.642Z,101045.59
2023-11-25T13:04:06.376Z,101040.63
2023-11-25T13:06:51.810Z,101039.38
2023-11-25T13:09:29.887Z,101041.06
2023-11-25T13:12:00.170Z,101038.56
2023-11-25T13:14:30.486Z,101043.59
2023-11-25T13:17:00.330Z,101041.94
2023-11-25T13:19:30.903Z,101038.63
2023-11-25T13:22:00.777Z,101032.56
2023-11-25T13:24:30.208Z,101035.28
2023-11-25T13:26:59.658Z,101037.78
2023-11-25T13:29:29.363Z,101034.16
2023-11-25T13:31:59.287Z,101031.41
2023-11-25T13:34:29.037Z,101037.22
2023-11-25T13:36:59.389Z,101032.22
2023-11-25T13:39:30.173Z,101021.91
2023-11-25T13:42:00.055Z,101026.53
2023-11-25T13:44:29.647Z,101019.53
2023-11-25T13:47:00.541Z,101024.19
2023-11-25T13:49:31.485Z,101021.31
2023-11-25T13:52:01.381Z,101017.25
2023-11-25T13:54:31.356Z,101023.94
2023-11-25T13:57:01.230Z,101035.19
2023-11-25T13:59:36.686Z,101035.63
2023-11-25T14:02:06.924Z,101031.69
2023-11-25T14:04:40.587Z,101034.00
2023-11-25T14:07:11.832Z,101024.84
2023-11-25T14:09:42.252Z,101021.31
2023-11-25T14:12:12.700Z,101028.19
2023-11-25T14:14:42.096Z,101032.16
2023-11-25T14:17:18.158Z,101037.94
2023-11-25T14:19:47.953Z,101028.56
2023-11-25T14:22:20.821Z,101025.66
2023-11-25T14:24:50.822Z,101030.88
2023-11-25T14:27:20.554Z,101028.97
2023-11-25T14:29:50.841Z,101025.63
2023-11-25T14:32:20.664Z,101027.94
2023-11-25T14:34:50.391Z,101016.50
2023-11-25T14:37:21.224Z,101028.53
2023-11-25T14:39:58.061Z,101024.38
2023-11-25T14:42:35.078Z,101020.03
2023-11-25T14:45:09.301Z,101011.91
2023-11-25T14:47:42.082Z,101018.56
2023-11-25T14:50:13.622Z,101004.44
2023-11-25T14:52:44.012Z,101012.31
2023-11-25T14:55:13.691Z,101003.34
2023-11-25T14:57:45.017Z,101005.59
2023-11-25T15:00:18.275Z,101007.06
2023-11-25T15:02:48.250Z,101015.16
2023-11-25T15:05:17.913Z,101008.09
2023-11-25T15:07:47.737Z,101010.59
2023-11-25T15:10:17.322Z,101002.28
2023-11-25T15:12:47.020Z,101003.53
2023-11-25T15:15:16.604Z,100993.97
2023-11-25T15:17:55.564Z,101001.44
2023-11-25T15:20:25.364Z,100994.78
2023-11-25T15:22:56.968Z,101000.19
2023-11-25T15:25:28.467Z,100998.72
2023-11-25T15:27:58.696Z,101004.72
2023-11-25T15:30:29.989Z,101002.66
2023-11-25T15:33:01.130Z,101003.06
2023-11-25T15:35:30.952Z,100998.97
2023-11-25T15:38:00.464Z,101001.06
2023-11-25T15:40:30.187Z,101003.94
2023-11-25T15:42:59.974Z,100993.41
2023-11-25T15:45:29.844Z,100990.69
2023-11-25T15:48:00.222Z,100991.91
2023-11-25T15:50:29.693Z,100994.81
2023-11-25T15:52:59.511Z,100990.66
2023-11-25T15:55:29.644Z,100993.56
2023-11-25T15:57:59.484Z,100998.53
2023-11-25T16:00:29.500Z,100992.72
2023-11-25T16:02:59.464Z,101000.19
2023-11-25T16:05:29.392Z,100996.22
2023-11-25T16:07:59.720Z,100994.56
2023-11-25T16:10:29.697Z,100999.75
2023-11-25T16:13:05.194Z,101000.78
2023-11-25T16:15:35.351Z,100998.72
2023-11-25T16:18:05.466Z,101005.13
2023-11-25T16:20:37.329Z,100999.31
2023-11-25T16:23:07.982Z,101010.75
2023-11-25T16:25:38.759Z,100999.31
2023-11-25T16:28:08.937Z,101007.19
2023-11-25T16:30:38.745Z,101008.88
2023-11-25T16:33:08.227Z,101012.00
2023-11-25T16:35:38.930Z,101010.53
2023-11-25T16:38:09.205Z,101004.31
2023-11-25T16:40:39.746Z,101003.44
2023-11-25T16:43:09.333Z,101000.13
2023-11-25T16:45:39.676Z,101003.84
2023-11-25T16:48:09.691Z,101006.13
2023-11-25T16:50:42.039Z,101003.00
2023-11-25T16:53:13.419Z,100993.03
2023-11-25T16:55:43.329Z,100999.50
2023-11-25T16:58:12.987Z,100997.19
2023-11-25T17:00:42.698Z,101001.97
2023-11-25T17:03:12.952Z,100995.50
2023-11-25T17:05:42.911Z,100993.03
2023-11-25T17:08:12.489Z,100993.22
2023-11-25T17:10:42.456Z,100992.59
2023-11-25T17:13:14.013Z,100986.34
2023-11-25T17:15:44.020Z,100982.19
2023-11-25T17:18:13.860Z,100973.09
2023-11-25T17:20:43.285Z,100968.69
2023-11-25T17:23:13.080Z,100968.06
2023-11-25T17:25:43.199Z,100962.66
2023-11-25T17:28:13.063Z,100973.84
2023-11-25T17:30:44.098Z,100965.13
2023-11-25T17:33:15.003Z,100966.38
2023-11-25T17:35:47.948Z,100957.22
2023-11-25T17:38:19.495Z,100953.06
2023-11-25T17:40:52.620Z,100954.09
2023-11-25T17:43:22.348Z,100945.59
2023-11-25T17:45:51.733Z,100949.72
2023-11-25T17:48:22.226Z,100938.94
2023-11-25T17:50:51.614Z,100936.47
2023-11-25T17:53:21.387Z,100937.69
2023-11-25T17:55:50.802Z,100929.78
2023-11-25T17:58:20.477Z,100930.63
2023-11-25T18:00:51.516Z,100932.69
2023-11-25T18:03:22.484Z,100926.66
2023-11-25T18:05:52.407Z,100927.31
2023-11-25T18:08:22.057Z,100924.78
2023-11-25T18:10:51.494Z,100918.56
2023-11-25T18:13:21.157Z,100917.75
2023-11-25T18:15:50.897Z,100910.69
2023-11-25T18:18:20.457Z,100916.28
2023-11-25T18:20:50.103Z,100911.94
2023-11-25T18:23:19.836Z,100906.53
2023-11-25T18:25:49.280Z,100911.28
2023-11-25T18:28:19.828Z,100903.59
2023-11-25T18:30:49.352Z,100904.63
2023-11-25T18:33:19.517Z,100907.72
2023-11-25T18:35:49.400Z,100909.19
2023-11-25T18:38:19.871Z,100902.34
2023-11-25T18:40:49.672Z,100904.00
2023-11-25T18:43:19.108Z,100906.72
2023-11-25T18:45:49.842Z,100899.63
2023-11-25T18:48:19.292Z,100894.47
2023-11-25T18:50:49.410Z,100900.03
2023-11-25T18:53:19.086Z,100902.72
2023-11-25T18:55:50.053Z,100905.25
2023-11-25T18:58:19.912Z,100894.47
2023-11-25T19:00:49.378Z,100888.66
2023-11-25T19:03:19.188Z,100889.03
2023-11-25T19:05:51.742Z,100890.69
2023-11-25T19:08:21.651Z,100887.38
2023-11-25T19:10:51.208Z,100879.91
2023-11-25T19:13:21.162Z,100874.06
2023-11-25T19:15:50.558Z,100873.25
2023-11-25T19:18:20.353Z,100878.63
2023-11-25T19:20:50.033Z,100865.38
2023-11-25T19:23:19.804Z,100866.19
2023-11-25T19:25:50.094Z,100864.91
2023-11-25T19:28:20.888Z,100856.00
2023-11-25T19:30:51.957Z,100854.53
2023-11-25T19:33:21.588Z,100861.63
2023-11-25T19:35:51.234Z,100860.78
2023-11-25T19:38:21.053Z,100856.63
2023-11-25T19:40:50.908Z,100856.22
2023-11-25T19:43:20.350Z,100846.03
2023-11-25T19:45:49.862Z,100842.91
2023-11-25T19:48:20.163Z,100849.97
2023-11-25T19:50:49.665Z,100848.94
2023-11-25T19:53:20.022Z,100849.97
2023-11-25T19:55:49.461Z,100848.31
2023-11-25T19:58:19.121Z,100840.41
2023-11-25T20:00:53.481Z,100844.56
2023-11-25T20:03:28.011Z,100843.09
2023-11-25T20:05:57.646Z,100840.81
2023-11-25T20:08:27.392Z,100842.50
2023-11-25T20:10:56.787Z,100842.50
2023-11-25T20:13:26.594Z,100838.94
2023-11-25T20:15:56.085Z,100834.56
2023-11-25T20:18:25.856Z,100829.56
2023-11-25T20:20:55.395Z,100833.28
2023-11-25T20:23:28.960Z,100834.97
2023-11-25T20:25:58.593Z,100844.69
2023-11-25T20:28:28.060Z,100843.06
2023-11-25T20:31:00.163Z,100842.41
2023-11-25T20:33:30.830Z,100838.06
2023-11-25T20:36:01.124Z,100832.03
2023-11-25T20:38:30.890Z,100830.38
2023-11-25T20:41:00.319Z,100828.69
2023-11-25T20:43:30.022Z,100834.09
2023-11-25T20:46:00.042Z,100821.66
2023-11-25T20:48:29.901Z,100820.00
2023-11-25T20:51:03.779Z,100828.91
2023-11-25T20:53:35.298Z,100822.06
2023-11-25T20:56:06.028Z,100825.78
2023-11-25T20:58:36.039Z,100834.06
2023-11-25T21:01:08.870Z,100841.31
2023-11-25T21:03:39.084Z,100845.03
2023-11-25T21:06:08.864Z,100835.47
2023-11-25T21:08:38.534Z,100835.28
2023-11-25T21:11:08.120Z,100825.75
2023-11-25T21:13:38.223Z,100833.25
2023-11-25T21:16:08.031Z,100844.41
2023-11-25T21:18:40.496Z,100839.44
2023-11-25T21:21:10.151Z,100837.34
2023-11-25T21:23:39.649Z,100848.78
2023-11-25T21:26:10.631Z,100853.50
2023-11-25T21:28:40.177Z,100860.59
2023-11-25T21:31:09.809Z,100861.00
2023-11-25T21:33:39.317Z,100863.03
2023-11-25T21:36:08.989Z,100865.72
2023-11-25T21:38:38.578Z,100872.13
2023-11-25T21:41:08.430Z,100874.22
2023-11-25T21:43:38.409Z,100868.81
2023-11-25T21:46:09.710Z,100870.88
2023-11-25T21:48:41.922Z,100884.34
2023-11-25T21:51:11.567Z,100891.41
2023-11-25T21:53:41.716Z,100896.16
2023-11-25T21:56:11.430Z,100889.91
2023-11-25T21:58:41.104Z,100888.66
2023-11-25T22:01:10.766Z,100900.25
2023-11-25T22:03:40.834Z,100898.41
2023-11-25T22:06:11.177Z,100896.94
2023-11-25T22:08:40.539Z,100903.34
2023-11-25T22:11:10.350Z,100920.16
2023-11-25T22:13:40.219Z,100914.78
2023-11-25T22:16:10.371Z,100916.44
2023-11-25T22:18:39.886Z,100918.47
2023-11-25T22:21:09.866Z,100927.59
2023-11-25T22:23:40.512Z,100926.97
2023-11-25T22:26:21.688Z,100936.25
2023-11-25T22:28:51.967Z,100930.69
2023-11-25T22:31:22.605Z,100933.38
2023-11-25T22:33:53.398Z,100931.09
2023-11-25T22:36:23.792Z,100931.09
2023-11-25T22:38:54.075Z,100933.13
2023-11-25T22:41:25.929Z,100935.00
2023-11-25T22:43:56.157Z,100936.88
2023-11-25T22:46:27.282Z,100907.22
2023-11-25T22:48:57.002Z,100945.94
2023-11-25T22:51:26.547Z,100948.03
2023-11-25T22:53:57.858Z,100948.22
2023-11-25T22:56:27.523Z,100953.41
2023-11-25T22:58:57.044Z,100947.00
2023-11-25T23:01:34.200Z,100957.59
2023-11-25T23:04:04.506Z,100964.03
2023-11-25T23:06:37.559Z,100971.19
2023-11-25T23:09:07.412Z,100968.16
2023-11-25T23:11:36.846Z,100976.09
2023-11-25T23:14:06.825Z,100968.06
2023-11-25T23:16:36.730Z,100983.25
2023-11-25T23:19:06.457Z,100985.81
2023-11-25T23:21:36.069Z,100988.75
2023-11-25T23:24:06.263Z,100986.91
2023-11-25T23:26:36.027Z,100995.09
2023-11-25T23:29:05.954Z,100990.13
2023-11-25T23:31:35.695Z,100999.13
2023-11-25T23:34:06.674Z,100992.28
2023-11-25T23:36:36.448Z,100988.19
2023-11-25T23:39:05.880Z,100994.81
2023-11-25T23:41:35.586Z,100996.09
2023-11-25T23:44:05.102Z,100995.72
2023-11-25T23:46:34.874Z,101002.56
2023-11-25T23:49:04.341Z,101005.69
2023-11-25T23:51:34.030Z,101006.34
2023-11-25T23:54:04.628Z,101028.13
2023-11-25T23:56:36.044Z,101031.28
2023-11-25T23:59:06.857Z,101030.22
